sensor_id;sensor_type;location;lat;lon;timestamp;pressure;altitude;pressure_sealevel;temperature;humidity
74615;BME280;63121;51.458;-0.110;2023-05-07T00:01:31;101283.41;;;19.03;61.44
74615;BME280;63121;51.458;-0.110;2023-05-07T00:03:56;101285.19;;;18.78;62.24
74615;BME280;63121;51.458;-0.110;2023-05-07T00:06:22;101288.00;;;18.97;61.52
74615;BME280;63121;51.458;-0.110;2023-05-07T00:08:48;101286.41;;;19.16;60.44
74615;BME280;63121;51.458;-0.110;2023-05-07T00:11:13;101284.75;;;19.14;60.30
74615;BME280;63121;51.458;-0.110;2023-05-07T00:13:38;101295.84;;;19.20;60.38
74615;BME280;63121;51.458;-0.110;2023-05-07T00:16:04;101290.66;;;18.95;61.13
74615;BME280;63121;51.458;-0.110;2023-05-07T00:18:30;101297.56;;;18.98;61.09
74615;BME280;63121;51.458;-0.110;2023-05-07T00:20:56;101292.84;;;19.53;59.54
74615;BME280;63121;51.458;-0.110;2023-05-07T00:23:22;101293.78;;;19.28;60.37
74615;BME280;63121;51.458;-0.110;2023-05-07T00:25:47;101297.75;;;19.39;60.01
74615;BME280;63121;51.458;-0.110;2023-05-07T00:28:13;101296.13;;;19.36;59.95
74615;BME280;63121;51.458;-0.110;2023-05-07T00:30:38;101284.56;;;19.42;59.61
74615;BME280;63121;51.458;-0.110;2023-05-07T00:33:03;101286.22;;;19.44;59.63
74615;BME280;63121;51.458;-0.110;2023-05-07T00:35:29;101291.31;;;19.02;60.34
74615;BME280;63121;51.458;-0.110;2023-05-07T00:37:55;101285.94;;;19.28;59.73
74615;BME280;63121;51.458;-0.110;2023-05-07T00:40:20;101285.75;;;19.33;59.61
74615;BME280;63121;51.458;-0.110;2023-05-07T00:42:46;101286.75;;;18.83;61.04
74615;BME280;63121;51.458;-0.110;2023-05-07T00:45:13;101289.03;;;18.93;60.42
74615;BME280;63121;51.458;-0.110;2023-05-07T00:47:39;101281.53;;;19.07;60.03
74615;BME280;63121;51.458;-0.110;2023-05-07T00:50:07;101279.94;;;19.03;60.34
74615;BME280;63121;51.458;-0.110;2023-05-07T00:52:33;101279.72;;;18.60;61.30
74615;BME280;63121;51.458;-0.110;2023-05-07T00:55:01;101293.38;;;18.43;61.64
74615;BME280;63121;51.458;-0.110;2023-05-07T00:57:33;101281.03;;;18.72;60.33
74615;BME280;63121;51.458;-0.110;2023-05-07T01:00:00;101281.94;;;18.71;60.30
74615;BME280;63121;51.458;-0.110;2023-05-07T01:02:26;101279.28;;;18.73;60.04
74615;BME280;63121;51.458;-0.110;2023-05-07T01:04:51;101280.25;;;18.70;60.17
74615;BME280;63121;51.458;-0.110;2023-05-07T01:07:16;101281.66;;;18.55;60.79
74615;BME280;63121;51.458;-0.110;2023-05-07T01:09:42;101293.25;;;18.46;60.78
74615;BME280;63121;51.458;-0.110;2023-05-07T01:12:08;101290.63;;;18.46;60.49
74615;BME280;63121;51.458;-0.110;2023-05-07T01:14:33;101284.91;;;18.37;61.02
74615;BME280;63121;51.458;-0.110;2023-05-07T01:16:59;101280.34;;;18.42;60.88
74615;BME280;63121;51.458;-0.110;2023-05-07T01:19:25;101283.25;;;18.34;60.82
74615;BME280;63121;51.458;-0.110;2023-05-07T01:21:51;101280.69;;;18.33;61.03
74615;BME280;63121;51.458;-0.110;2023-05-07T01:24:17;101291.53;;;18.20;61.57
74615;BME280;63121;51.458;-0.110;2023-05-07T01:26:43;101290.50;;;18.26;61.69
74615;BME280;63121;51.458;-0.110;2023-05-07T01:29:09;101286.97;;;18.27;61.76
74615;BME280;63121;51.458;-0.110;2023-05-07T01:31:35;101283.50;;;18.26;61.30
74615;BME280;63121;51.458;-0.110;2023-05-07T01:34:03;101288.41;;;18.36;61.83
74615;BME280;63121;51.458;-0.110;2023-05-07T01:36:29;101292.25;;;18.51;60.95
74615;BME280;63121;51.458;-0.110;2023-05-07T01:38:55;101296.78;;;18.45;61.98
74615;BME280;63121;51.458;-0.110;2023-05-07T01:41:23;101305.22;;;18.54;61.41
74615;BME280;63121;51.458;-0.110;2023-05-07T01:43:50;101297.88;;;18.38;61.68
74615;BME280;63121;51.458;-0.110;2023-05-07T01:46:17;101294.84;;;18.51;61.18
74615;BME280;63121;51.458;-0.110;2023-05-07T01:48:43;101285.56;;;18.67;60.80
74615;BME280;63121;51.458;-0.110;2023-05-07T01:51:11;101290.72;;;18.70;60.77
74615;BME280;63121;51.458;-0.110;2023-05-07T01:53:37;101289.16;;;18.89;60.48
74615;BME280;63121;51.458;-0.110;2023-05-07T01:56:03;101288.84;;;18.97;60.01
74615;BME280;63121;51.458;-0.110;2023-05-07T01:58:29;101287.78;;;19.03;60.19
74615;BME280;63121;51.458;-0.110;2023-05-07T02:00:54;101287.97;;;18.98;60.20
74615;BME280;63121;51.458;-0.110;2023-05-07T02:03:19;101293.38;;;18.94;60.22
74615;BME280;63121;51.458;-0.110;2023-05-07T02:05:45;101297.00;;;18.89;60.04
74615;BME280;63121;51.458;-0.110;2023-05-07T02:08:10;101301.78;;;18.77;60.08
74615;BME280;63121;51.458;-0.110;2023-05-07T02:10:35;101293.63;;;18.61;60.36
74615;BME280;63121;51.458;-0.110;2023-05-07T02:13:01;101298.75;;;18.64;60.51
74615;BME280;63121;51.458;-0.110;2023-05-07T02:15:27;101299.66;;;18.88;60.04
74615;BME280;63121;51.458;-0.110;2023-05-07T02:18:04;101294.38;;;18.89;60.17
74615;BME280;63121;51.458;-0.110;2023-05-07T02:20:29;101294.97;;;18.47;61.09
74615;BME280;63121;51.458;-0.110;2023-05-07T02:22:55;101310.03;;;18.41;61.37
74615;BME280;63121;51.458;-0.110;2023-05-07T02:25:20;101305.31;;;18.76;60.08
74615;BME280;63121;51.458;-0.110;2023-05-07T02:27:45;101307.06;;;18.75;60.42
74615;BME280;63121;51.458;-0.110;2023-05-07T02:30:11;101314.84;;;18.53;60.92
74615;BME280;63121;51.458;-0.110;2023-05-07T02:32:36;101305.25;;;18.77;60.69
74615;BME280;63121;51.458;-0.110;2023-05-07T02:35:02;101310.25;;;18.85;60.32
74615;BME280;63121;51.458;-0.110;2023-05-07T02:37:27;101311.25;;;18.56;60.48
74615;BME280;63121;51.458;-0.110;2023-05-07T02:39:52;101309.22;;;18.39;61.43
74615;BME280;63121;51.458;-0.110;2023-05-07T02:42:18;101312.16;;;18.80;60.37
74615;BME280;63121;51.458;-0.110;2023-05-07T02:44:43;101309.28;;;18.62;60.58
74615;BME280;63121;51.458;-0.110;2023-05-07T02:47:08;101313.31;;;18.46;61.02
74615;BME280;63121;51.458;-0.110;2023-05-07T02:49:34;101313.88;;;18.56;60.61
74615;BME280;63121;51.458;-0.110;2023-05-07T02:52:00;101313.09;;;18.77;59.88
74615;BME280;63121;51.458;-0.110;2023-05-07T02:54:25;101318.72;;;18.66;60.33
74615;BME280;63121;51.458;-0.110;2023-05-07T02:56:50;101315.38;;;18.61;60.68
74615;BME280;63121;51.458;-0.110;2023-05-07T02:59:16;101315.47;;;18.60;60.12
74615;BME280;63121;51.458;-0.110;2023-05-07T03:01:41;101310.09;;;18.89;59.78
74615;BME280;63121;51.458;-0.110;2023-05-07T03:04:09;101318.75;;;18.65;59.98
74615;BME280;63121;51.458;-0.110;2023-05-07T03:06:35;101303.13;;;18.38;60.99
74615;BME280;63121;51.458;-0.110;2023-05-07T03:09:00;101301.50;;;18.09;61.57
74615;BME280;63121;51.458;-0.110;2023-05-07T03:11:26;101307.09;;;18.50;60.47
74615;BME280;63121;51.458;-0.110;2023-05-07T03:13:51;101310.03;;;18.66;60.09
74615;BME280;63121;51.458;-0.110;2023-05-07T03:16:16;101312.34;;;18.48;60.67
74615;BME280;63121;51.458;-0.110;2023-05-07T03:18:42;101315.69;;;18.54;60.91
74615;BME280;63121;51.458;-0.110;2023-05-07T03:21:07;101317.91;;;18.64;60.53
74615;BME280;63121;51.458;-0.110;2023-05-07T03:23:32;101313.22;;;18.49;60.63
74615;BME280;63121;51.458;-0.110;2023-05-07T03:25:58;101312.47;;;18.71;60.25
74615;BME280;63121;51.458;-0.110;2023-05-07T03:28:23;101313.09;;;18.79;59.52
74615;BME280;63121;51.458;-0.110;2023-05-07T03:30:48;101316.34;;;18.85;59.96
74615;BME280;63121;51.458;-0.110;2023-05-07T03:33:14;101315.63;;;18.80;59.48
74615;BME280;63121;51.458;-0.110;2023-05-07T03:35:39;101318.50;;;18.73;59.89
74615;BME280;63121;51.458;-0.110;2023-05-07T03:38:05;101328.00;;;18.50;60.20
74615;BME280;63121;51.458;-0.110;2023-05-07T03:40:30;101329.13;;;18.68;59.71
74615;BME280;63121;51.458;-0.110;2023-05-07T03:42:55;101330.06;;;18.65;59.82
74615;BME280;63121;51.458;-0.110;2023-05-07T03:45:21;101342.03;;;18.73;59.70
74615;BME280;63121;51.458;-0.110;2023-05-07T03:47:46;101335.97;;;18.72;59.99
74615;BME280;63121;51.458;-0.110;2023-05-07T03:50:11;101334.63;;;18.60;60.00
74615;BME280;63121;51.458;-0.110;2023-05-07T03:52:37;101340.22;;;18.75;59.60
74615;BME280;63121;51.458;-0.110;2023-05-07T03:55:02;101338.84;;;18.64;59.80
74615;BME280;63121;51.458;-0.110;2023-05-07T03:57:28;101341.03;;;18.52;60.29
74615;BME280;63121;51.458;-0.110;2023-05-07T03:59:53;101343.84;;;18.45;60.51
74615;BME280;63121;51.458;-0.110;2023-05-07T04:02:18;101347.34;;;18.44;60.60
74615;BME280;63121;51.458;-0.110;2023-05-07T04:04:44;101345.94;;;18.61;60.18
74615;BME280;63121;51.458;-0.110;2023-05-07T04:07:09;101352.97;;;18.59;59.97
74615;BME280;63121;51.458;-0.110;2023-05-07T04:09:35;101346.78;;;18.61;59.86
74615;BME280;63121;51.458;-0.110;2023-05-07T04:12:00;101350.25;;;18.62;59.80
74615;BME280;63121;51.458;-0.110;2023-05-07T04:14:26;101352.28;;;18.54;60.36
74615;BME280;63121;51.458;-0.110;2023-05-07T04:16:51;101350.09;;;18.41;60.73
74615;BME280;63121;51.458;-0.110;2023-05-07T04:19:17;101354.63;;;18.61;59.76
74615;BME280;63121;51.458;-0.110;2023-05-07T04:21:43;101365.84;;;18.65;59.42
74615;BME280;63121;51.458;-0.110;2023-05-07T04:24:08;101363.00;;;18.71;59.66
74615;BME280;63121;51.458;-0.110;2023-05-07T04:26:33;101382.16;;;18.72;59.33
74615;BME280;63121;51.458;-0.110;2023-05-07T04:28:59;101380.81;;;18.86;59.23
74615;BME280;63121;51.458;-0.110;2023-05-07T04:31:25;101382.53;;;18.61;59.96
74615;BME280;63121;51.458;-0.110;2023-05-07T04:33:51;101384.84;;;18.70;59.71
74615;BME280;63121;51.458;-0.110;2023-05-07T04:36:16;101384.94;;;18.67;59.59
74615;BME280;63121;51.458;-0.110;2023-05-07T04:38:42;101386.97;;;18.59;59.79
74615;BME280;63121;51.458;-0.110;2023-05-07T04:41:08;101386.47;;;18.74;59.68
74615;BME280;63121;51.458;-0.110;2023-05-07T04:43:34;101378.81;;;18.68;59.76
74615;BME280;63121;51.458;-0.110;2023-05-07T04:45:59;101387.06;;;18.82;59.36
74615;BME280;63121;51.458;-0.110;2023-05-07T04:48:25;101382.66;;;18.31;60.09
74615;BME280;63121;51.458;-0.110;2023-05-07T04:50:51;101380.09;;;18.56;59.96
74615;BME280;63121;51.458;-0.110;2023-05-07T04:53:17;101388.28;;;18.45;60.22
74615;BME280;63121;51.458;-0.110;2023-05-07T04:55:43;101380.47;;;18.71;59.42
74615;BME280;63121;51.458;-0.110;2023-05-07T04:58:08;101392.06;;;18.37;60.21
74615;BME280;63121;51.458;-0.110;2023-05-07T05:00:34;101388.78;;;18.57;60.23
74615;BME280;63121;51.458;-0.110;2023-05-07T05:02:59;101390.25;;;18.39;60.45
74615;BME280;63121;51.458;-0.110;2023-05-07T05:05:25;101392.03;;;18.63;59.77
74615;BME280;63121;51.458;-0.110;2023-05-07T05:07:50;101396.25;;;18.67;60.29
74615;BME280;63121;51.458;-0.110;2023-05-07T05:10:17;101393.50;;;18.45;60.95
74615;BME280;63121;51.458;-0.110;2023-05-07T05:12:42;101405.16;;;18.35;60.84
74615;BME280;63121;51.458;-0.110;2023-05-07T05:15:08;101397.72;;;18.23;60.89
74615;BME280;63121;51.458;-0.110;2023-05-07T05:17:34;101409.41;;;18.39;60.86
74615;BME280;63121;51.458;-0.110;2023-05-07T05:20:01;101405.88;;;18.67;60.08
74615;BME280;63121;51.458;-0.110;2023-05-07T05:22:26;101402.84;;;18.53;60.30
74615;BME280;63121;51.458;-0.110;2023-05-07T05:24:54;101410.09;;;18.44;61.01
74615;BME280;63121;51.458;-0.110;2023-05-07T05:27:20;101408.88;;;18.55;60.60
74615;BME280;63121;51.458;-0.110;2023-05-07T05:29:45;101412.06;;;18.38;61.08
74615;BME280;63121;51.458;-0.110;2023-05-07T05:32:10;101411.75;;;18.74;60.68
74615;BME280;63121;51.458;-0.110;2023-05-07T05:34:36;101413.94;;;18.59;60.61
74615;BME280;63121;51.458;-0.110;2023-05-07T05:37:01;101415.34;;;18.69;60.68
74615;BME280;63121;51.458;-0.110;2023-05-07T05:39:26;101418.19;;;18.63;60.48
74615;BME280;63121;51.458;-0.110;2023-05-07T05:41:52;101413.72;;;18.67;61.23
74615;BME280;63121;51.458;-0.110;2023-05-07T05:44:17;101417.63;;;18.80;60.52
74615;BME280;63121;51.458;-0.110;2023-05-07T05:46:42;101420.75;;;18.92;60.71
74615;BME280;63121;51.458;-0.110;2023-05-07T05:49:08;101424.06;;;18.97;60.41
74615;BME280;63121;51.458;-0.110;2023-05-07T05:51:33;101426.25;;;19.09;60.31
74615;BME280;63121;51.458;-0.110;2023-05-07T05:53:59;101433.94;;;18.88;60.28
74615;BME280;63121;51.458;-0.110;2023-05-07T05:56:24;101434.25;;;18.78;60.87
74615;BME280;63121;51.458;-0.110;2023-05-07T05:58:50;101440.94;;;18.88;60.53
74615;BME280;63121;51.458;-0.110;2023-05-07T06:01:15;101438.28;;;18.89;61.13
74615;BME280;63121;51.458;-0.110;2023-05-07T06:03:42;101443.50;;;18.89;60.74
74615;BME280;63121;51.458;-0.110;2023-05-07T06:06:07;101446.84;;;19.18;59.83
74615;BME280;63121;51.458;-0.110;2023-05-07T06:08:32;101451.03;;;19.24;60.31
74615;BME280;63121;51.458;-0.110;2023-05-07T06:10:58;101446.16;;;18.88;60.62
74615;BME280;63121;51.458;-0.110;2023-05-07T06:13:24;101448.97;;;19.08;59.91
74615;BME280;63121;51.458;-0.110;2023-05-07T06:15:49;101450.13;;;19.00;60.00
74615;BME280;63121;51.458;-0.110;2023-05-07T06:18:14;101453.63;;;19.24;60.10
74615;BME280;63121;51.458;-0.110;2023-05-07T06:20:40;101451.72;;;19.29;59.91
74615;BME280;63121;51.458;-0.110;2023-05-07T06:23:05;101456.63;;;19.13;60.18
74615;BME280;63121;51.458;-0.110;2023-05-07T06:25:30;101458.03;;;19.23;59.56
74615;BME280;63121;51.458;-0.110;2023-05-07T06:27:56;101458.41;;;19.38;59.04
74615;BME280;63121;51.458;-0.110;2023-05-07T06:30:21;101465.50;;;19.09;60.22
74615;BME280;63121;51.458;-0.110;2023-05-07T06:32:46;101466.13;;;18.64;61.44
74615;BME280;63121;51.458;-0.110;2023-05-07T06:35:12;101465.41;;;18.32;62.15
74615;BME280;63121;51.458;-0.110;2023-05-07T06:37:38;101466.16;;;18.62;61.23
74615;BME280;63121;51.458;-0.110;2023-05-07T06:40:05;101470.88;;;18.79;61.28
74615;BME280;63121;51.458;-0.110;2023-05-07T06:42:31;101469.63;;;18.91;60.56
74615;BME280;63121;51.458;-0.110;2023-05-07T06:44:56;101465.78;;;18.75;60.57
74615;BME280;63121;51.458;-0.110;2023-05-07T06:47:21;101481.34;;;18.78;60.86
74615;BME280;63121;51.458;-0.110;2023-05-07T06:49:47;101474.91;;;19.15;59.87
74615;BME280;63121;51.458;-0.110;2023-05-07T06:52:12;101475.56;;;19.21;59.53
74615;BME280;63121;51.458;-0.110;2023-05-07T06:54:37;101476.59;;;19.41;59.43
74615;BME280;63121;51.458;-0.110;2023-05-07T06:57:03;101473.53;;;19.53;58.58
74615;BME280;63121;51.458;-0.110;2023-05-07T06:59:28;101471.19;;;19.70;58.67
74615;BME280;63121;51.458;-0.110;2023-05-07T07:01:53;101471.56;;;19.83;58.04
74615;BME280;63121;51.458;-0.110;2023-05-07T07:04:19;101470.28;;;19.72;57.98
74615;BME280;63121;51.458;-0.110;2023-05-07T07:06:45;101474.94;;;19.87;57.83
74615;BME280;63121;51.458;-0.110;2023-05-07T07:09:10;101475.00;;;19.37;58.72
74615;BME280;63121;51.458;-0.110;2023-05-07T07:11:36;101476.31;;;19.25;59.18
74615;BME280;63121;51.458;-0.110;2023-05-07T07:14:01;101477.22;;;19.47;58.63
74615;BME280;63121;51.458;-0.110;2023-05-07T07:16:26;101471.78;;;19.54;58.78
74615;BME280;63121;51.458;-0.110;2023-05-07T07:18:52;101472.78;;;19.75;58.47
74615;BME280;63121;51.458;-0.110;2023-05-07T07:21:17;101476.09;;;19.80;58.04
74615;BME280;63121;51.458;-0.110;2023-05-07T07:23:42;101472.97;;;19.68;57.36
74615;BME280;63121;51.458;-0.110;2023-05-07T07:26:08;101489.72;;;19.64;58.04
74615;BME280;63121;51.458;-0.110;2023-05-07T07:28:33;101489.81;;;19.13;59.71
74615;BME280;63121;51.458;-0.110;2023-05-07T07:30:58;101497.53;;;19.41;58.45
74615;BME280;63121;51.458;-0.110;2023-05-07T07:33:24;101494.84;;;19.67;58.23
74615;BME280;63121;51.458;-0.110;2023-05-07T07:35:49;101501.47;;;20.01;57.35
74615;BME280;63121;51.458;-0.110;2023-05-07T07:38:15;101505.41;;;19.89;57.49
74615;BME280;63121;51.458;-0.110;2023-05-07T07:40:40;101502.41;;;20.44;56.79
74615;BME280;63121;51.458;-0.110;2023-05-07T07:43:05;101498.75;;;20.48;55.90
74615;BME280;63121;51.458;-0.110;2023-05-07T07:45:31;101492.66;;;20.48;56.01
74615;BME280;63121;51.458;-0.110;2023-05-07T07:47:56;101488.84;;;20.99;54.91
74615;BME280;63121;51.458;-0.110;2023-05-07T07:50:22;101490.88;;;21.13;54.77
74615;BME280;63121;51.458;-0.110;2023-05-07T07:52:48;101503.72;;;20.99;54.74
74615;BME280;63121;51.458;-0.110;2023-05-07T07:55:13;101512.41;;;21.01;54.08
74615;BME280;63121;51.458;-0.110;2023-05-07T07:57:38;101508.91;;;20.80;55.11
74615;BME280;63121;51.458;-0.110;2023-05-07T08:00:04;101507.28;;;21.39;53.82
74615;BME280;63121;51.458;-0.110;2023-05-07T08:02:32;101510.22;;;21.31;53.76
74615;BME280;63121;51.458;-0.110;2023-05-07T08:04:57;101509.78;;;21.21;53.19
74615;BME280;63121;51.458;-0.110;2023-05-07T08:07:22;101508.75;;;21.25;53.43
74615;BME280;63121;51.458;-0.110;2023-05-07T08:09:48;101507.16;;;21.42;52.53
74615;BME280;63121;51.458;-0.110;2023-05-07T08:12:14;101507.59;;;21.72;52.40
74615;BME280;63121;51.458;-0.110;2023-05-07T08:14:40;101510.50;;;22.04;50.83
74615;BME280;63121;51.458;-0.110;2023-05-07T08:17:06;101509.66;;;22.41;50.41
74615;BME280;63121;51.458;-0.110;2023-05-07T08:19:31;101502.63;;;22.04;51.05
74615;BME280;63121;51.458;-0.110;2023-05-07T08:21:57;101505.81;;;22.29;49.80
74615;BME280;63121;51.458;-0.110;2023-05-07T08:24:22;101508.13;;;22.55;49.58
74615;BME280;63121;51.458;-0.110;2023-05-07T08:26:48;101509.69;;;22.76;49.62
74615;BME280;63121;51.458;-0.110;2023-05-07T08:29:14;101508.38;;;22.85;48.89
74615;BME280;63121;51.458;-0.110;2023-05-07T08:31:39;101513.63;;;22.67;49.29
74615;BME280;63121;51.458;-0.110;2023-05-07T08:34:05;101522.97;;;22.92;49.09
74615;BME280;63121;51.458;-0.110;2023-05-07T08:36:31;101511.13;;;22.83;48.03
74615;BME280;63121;51.458;-0.110;2023-05-07T08:38:57;101523.50;;;22.45;49.83
74615;BME280;63121;51.458;-0.110;2023-05-07T08:41:22;101525.56;;;22.38;49.39
74615;BME280;63121;51.458;-0.110;2023-05-07T08:43:49;101523.72;;;22.40;50.20
74615;BME280;63121;51.458;-0.110;2023-05-07T08:46:21;101525.56;;;22.38;49.05
74615;BME280;63121;51.458;-0.110;2023-05-07T08:48:51;101534.81;;;22.28;50.34
74615;BME280;63121;51.458;-0.110;2023-05-07T08:51:21;101531.81;;;22.55;49.13
74615;BME280;63121;51.458;-0.110;2023-05-07T08:53:47;101525.81;;;22.87;48.43
74615;BME280;63121;51.458;-0.110;2023-05-07T08:56:14;101540.44;;;22.76;48.34
74615;BME280;63121;51.458;-0.110;2023-05-07T08:58:41;101531.31;;;21.50;51.45
74615;BME280;63121;51.458;-0.110;2023-05-07T09:01:13;101531.38;;;22.07;50.51
74615;BME280;63121;51.458;-0.110;2023-05-07T09:03:39;101529.16;;;22.37;49.86
74615;BME280;63121;51.458;-0.110;2023-05-07T09:06:05;101533.97;;;22.46;49.54
74615;BME280;63121;51.458;-0.110;2023-05-07T09:08:33;101528.78;;;23.16;48.81
74615;BME280;63121;51.458;-0.110;2023-05-07T09:10:58;101532.78;;;22.88;48.49
74615;BME280;63121;51.458;-0.110;2023-05-07T09:13:24;101538.97;;;22.87;48.12
74615;BME280;63121;51.458;-0.110;2023-05-07T09:15:50;101536.50;;;22.84;48.28
74615;BME280;63121;51.458;-0.110;2023-05-07T09:18:15;101539.69;;;23.08;48.07
74615;BME280;63121;51.458;-0.110;2023-05-07T09:20:40;101531.53;;;22.78;48.44
74615;BME280;63121;51.458;-0.110;2023-05-07T09:23:07;101539.09;;;23.03;48.46
74615;BME280;63121;51.458;-0.110;2023-05-07T09:25:34;101554.25;;;22.98;48.67
74615;BME280;63121;51.458;-0.110;2023-05-07T09:28:01;101554.91;;;22.30;49.83
74615;BME280;63121;51.458;-0.110;2023-05-07T09:30:30;101557.59;;;22.65;49.18
74615;BME280;63121;51.458;-0.110;2023-05-07T09:32:57;101556.66;;;22.30;48.85
74615;BME280;63121;51.458;-0.110;2023-05-07T09:35:22;101551.88;;;23.11;47.31
74615;BME280;63121;51.458;-0.110;2023-05-07T09:37:55;101564.69;;;22.46;48.58
74615;BME280;63121;51.458;-0.110;2023-05-07T09:40:22;101572.13;;;21.78;49.75
74615;BME280;63121;51.458;-0.110;2023-05-07T09:42:48;101563.81;;;22.07;49.57
74615;BME280;63121;51.458;-0.110;2023-05-07T09:45:14;101569.19;;;22.04;49.21
74615;BME280;63121;51.458;-0.110;2023-05-07T09:47:42;101579.84;;;21.82;50.16
74615;BME280;63121;51.458;-0.110;2023-05-07T09:50:10;101587.41;;;21.69;50.23
74615;BME280;63121;51.458;-0.110;2023-05-07T09:52:39;101584.81;;;21.88;50.50
74615;BME280;63121;51.458;-0.110;2023-05-07T09:55:06;101592.88;;;22.61;48.16
74615;BME280;63121;51.458;-0.110;2023-05-07T09:57:32;101585.66;;;23.03;47.55
74615;BME280;63121;51.458;-0.110;2023-05-07T09:59:58;101591.00;;;22.82;47.85
74615;BME280;63121;51.458;-0.110;2023-05-07T10:02:27;101586.91;;;23.13;47.16
74615;BME280;63121;51.458;-0.110;2023-05-07T10:04:54;101586.78;;;22.61;48.38
74615;BME280;63121;51.458;-0.110;2023-05-07T10:07:21;101587.47;;;22.83;48.00
74615;BME280;63121;51.458;-0.110;2023-05-07T10:09:46;101578.09;;;22.59;48.58
74615;BME280;63121;51.458;-0.110;2023-05-07T10:12:12;101583.81;;;23.73;46.54
74615;BME280;63121;51.458;-0.110;2023-05-07T10:14:38;101590.56;;;23.28;46.75
74615;BME280;63121;51.458;-0.110;2023-05-07T10:17:04;101602.78;;;23.29;46.95
74615;BME280;63121;51.458;-0.110;2023-05-07T10:19:30;101601.22;;;23.25;45.90
74615;BME280;63121;51.458;-0.110;2023-05-07T10:22:03;101602.06;;;23.25;46.47
74615;BME280;63121;51.458;-0.110;2023-05-07T10:24:32;101606.75;;;24.22;45.13
74615;BME280;63121;51.458;-0.110;2023-05-07T10:27:00;101608.53;;;24.21;44.32
74615;BME280;63121;51.458;-0.110;2023-05-07T10:34:45;101610.31;;;24.54;42.31
74615;BME280;63121;51.458;-0.110;2023-05-07T10:37:12;101603.03;;;25.20;41.58
74615;BME280;63121;51.458;-0.110;2023-05-07T10:39:38;101608.97;;;25.39;41.54
74615;BME280;63121;51.458;-0.110;2023-05-07T10:42:08;101612.56;;;24.60;41.86
74615;BME280;63121;51.458;-0.110;2023-05-07T10:44:34;101619.28;;;24.98;41.79
74615;BME280;63121;51.458;-0.110;2023-05-07T10:47:11;101625.91;;;24.25;42.90
74615;BME280;63121;51.458;-0.110;2023-05-07T10:52:30;101616.41;;;25.32;41.03
74615;BME280;63121;51.458;-0.110;2023-05-07T10:57:39;101625.41;;;23.68;44.67
74615;BME280;63121;51.458;-0.110;2023-05-07T11:05:27;101620.28;;;24.47;41.90
74615;BME280;63121;51.458;-0.110;2023-05-07T11:07:55;101628.81;;;23.70;43.70
74615;BME280;63121;51.458;-0.110;2023-05-07T11:10:21;101628.13;;;23.49;43.68
74615;BME280;63121;51.458;-0.110;2023-05-07T11:15:13;101628.16;;;24.81;41.87
74615;BME280;63121;51.458;-0.110;2023-05-07T11:17:56;101637.81;;;24.32;42.27
74615;BME280;63121;51.458;-0.110;2023-05-07T11:20:45;101643.22;;;23.98;43.53
74615;BME280;63121;51.458;-0.110;2023-05-07T11:26:08;101634.97;;;25.01;40.93
74615;BME280;63121;51.458;-0.110;2023-05-07T11:28:40;101646.31;;;24.55;42.11
74615;BME280;63121;51.458;-0.110;2023-05-07T11:31:07;101654.59;;;24.31;42.54
74615;BME280;63121;51.458;-0.110;2023-05-07T11:33:33;101657.25;;;23.98;43.36
74615;BME280;63121;51.458;-0.110;2023-05-07T11:36:02;101660.22;;;23.92;43.35
74615;BME280;63121;51.458;-0.110;2023-05-07T11:38:35;101667.81;;;24.31;43.42
74615;BME280;63121;51.458;-0.110;2023-05-07T11:41:00;101664.25;;;24.48;42.68
74615;BME280;63121;51.458;-0.110;2023-05-07T11:43:27;101671.09;;;24.84;41.48
74615;BME280;63121;51.458;-0.110;2023-05-07T11:45:52;101661.63;;;24.15;42.74
74615;BME280;63121;51.458;-0.110;2023-05-07T11:48:18;101657.13;;;23.49;44.70
74615;BME280;63121;51.458;-0.110;2023-05-07T11:50:53;101654.03;;;24.09;43.52
74615;BME280;63121;51.458;-0.110;2023-05-07T11:53:24;101667.22;;;24.09;43.42
74615;BME280;63121;51.458;-0.110;2023-05-07T11:55:55;101667.69;;;24.82;42.64
74615;BME280;63121;51.458;-0.110;2023-05-07T11:58:23;101663.38;;;24.32;42.75
74615;BME280;63121;51.458;-0.110;2023-05-07T12:00:49;101668.97;;;24.26;43.21
74615;BME280;63121;51.458;-0.110;2023-05-07T12:03:15;101654.56;;;24.81;41.76
74615;BME280;63121;51.458;-0.110;2023-05-07T12:05:40;101666.84;;;24.66;41.75
74615;BME280;63121;51.458;-0.110;2023-05-07T12:08:07;101660.34;;;25.03;41.33
74615;BME280;63121;51.458;-0.110;2023-05-07T12:10:32;101668.19;;;23.90;43.82
74615;BME280;63121;51.458;-0.110;2023-05-07T12:12:58;101670.22;;;23.85;43.61
74615;BME280;63121;51.458;-0.110;2023-05-07T12:15:23;101668.75;;;23.97;43.22
74615;BME280;63121;51.458;-0.110;2023-05-07T12:17:48;101667.31;;;23.38;43.93
74615;BME280;63121;51.458;-0.110;2023-05-07T12:20:14;101670.78;;;23.57;44.21
74615;BME280;63121;51.458;-0.110;2023-05-07T12:22:40;101667.69;;;24.50;43.03
74615;BME280;63121;51.458;-0.110;2023-05-07T12:25:07;101674.91;;;24.13;43.65
74615;BME280;63121;51.458;-0.110;2023-05-07T12:27:36;101663.63;;;24.27;42.46
74615;BME280;63121;51.458;-0.110;2023-05-07T12:30:03;101661.91;;;24.26;41.99
74615;BME280;63121;51.458;-0.110;2023-05-07T12:32:28;101664.00;;;24.04;42.29
74615;BME280;63121;51.458;-0.110;2023-05-07T12:34:54;101664.72;;;23.72;43.46
74615;BME280;63121;51.458;-0.110;2023-05-07T12:37:24;101673.78;;;24.35;42.76
74615;BME280;63121;51.458;-0.110;2023-05-07T12:40:09;101666.47;;;25.04;41.36
74615;BME280;63121;51.458;-0.110;2023-05-07T12:42:39;101675.19;;;23.91;43.07
74615;BME280;63121;51.458;-0.110;2023-05-07T12:45:13;101683.19;;;24.39;42.47
74615;BME280;63121;51.458;-0.110;2023-05-07T12:47:46;101676.03;;;24.74;41.68
74615;BME280;63121;51.458;-0.110;2023-05-07T12:50:15;101673.31;;;25.24;40.49
74615;BME280;63121;51.458;-0.110;2023-05-07T12:52:45;101679.94;;;24.99;40.51
74615;BME280;63121;51.458;-0.110;2023-05-07T12:55:13;101677.03;;;25.20;40.09
74615;BME280;63121;51.458;-0.110;2023-05-07T12:57:42;101673.50;;;25.19;39.08